Time;durP1;ratioP1;P1;durP2;ratioP2;P2;SDS_P1;SDS_P2;PMS_P1;PMS_P2;Temp;Humidity;BMP_temperature;BMP_pressure;BME280_temperature;BME280_humidity;BME280_pressure;Samples;Min_cycle;Max_cycle;Signal;HPM_P1;HPM_P2
2021/12/04 00:00:41;;;;;;;6.10;4.13;;;1.40;99.90;;;;;;5011178;28;20088;-80
2021/12/04 00:03:31;;;;;;;7.28;4.40;;;1.40;99.90;;;;;;5025496;28;20053;-81
2021/12/04 00:06:24;;;;;;;7.43;4.10;;;1.40;99.90;;;;;;5014455;28;20446;-81
2021/12/04 00:09:14;;;;;;;7.00;4.63;;;1.50;99.90;;;;;;5027816;28;20091;-82
2021/12/04 00:12:04;;;;;;;5.93;4.25;;;1.50;99.90;;;;;;5008633;28;20145;-81
2021/12/04 00:14:52;;;;;;;5.53;4.28;;;1.50;99.90;;;;;;5023452;28;20053;-82
2021/12/04 00:17:40;;;;;;;7.90;4.65;;;1.50;99.90;;;;;;5000153;28;20069;-82
2021/12/04 00:20:30;;;;;;;7.53;4.03;;;1.50;99.90;;;;;;5014529;28;20038;-83
2021/12/04 00:23:20;;;;;;;6.10;3.83;;;1.60;99.90;;;;;;5012286;28;20049;-83
2021/12/04 00:26:08;;;;;;;6.90;3.80;;;1.70;99.90;;;;;;5028053;28;20081;-82
2021/12/04 00:28:56;;;;;;;7.70;4.60;;;1.70;99.90;;;;;;4995156;28;20042;-81
2021/12/04 00:31:49;;;;;;;10.63;4.40;;;1.70;99.90;;;;;;5013860;28;20037;-81
2021/12/04 00:34:40;;;;;;;6.38;4.80;;;1.60;99.90;;;;;;5017208;28;20306;-82
2021/12/04 00:49:44;;;;;;;6.03;4.40;;;1.70;99.90;;;;;;5028730;28;20096;-81
2021/12/04 00:52:34;;;;;;;5.93;5.25;;;1.70;99.90;;;;;;5013338;28;20124;-80
2021/12/04 00:55:21;;;;;;;9.43;4.80;;;1.80;99.90;;;;;;4977100;28;20501;-81
2021/12/04 00:58:09;;;;;;;9.20;4.90;;;1.80;99.90;;;;;;5008472;28;20060;-80
2021/12/04 01:00:56;;;;;;;6.97;4.82;;;1.80;99.90;;;;;;5028742;28;20050;-81
2021/12/04 01:03:47;;;;;;;7.45;4.97;;;1.80;99.90;;;;;;5021795;28;20069;-83
2021/12/04 01:06:34;;;;;;;6.45;4.72;;;1.90;99.90;;;;;;4998099;28;20107;-81
2021/12/04 01:09:23;;;;;;;6.00;4.80;;;1.80;99.90;;;;;;5016151;28;20048;-81
2021/12/04 01:12:11;;;;;;;7.60;4.80;;;1.80;99.90;;;;;;5017109;28;20099;-81
2021/12/04 01:14:58;;;;;;;8.10;4.90;;;1.80;99.90;;;;;;5004594;28;20100;-82
2021/12/04 01:17:45;;;;;;;7.30;5.18;;;1.60;99.90;;;;;;5006351;28;20073;-81
2021/12/04 01:20:32;;;;;;;8.98;6.25;;;1.40;99.90;;;;;;4996553;28;20046;-82
2021/12/04 01:23:19;;;;;;;9.15;5.80;;;1.30;99.90;;;;;;5002076;28;20462;-81
2021/12/04 01:26:09;;;;;;;12.65;7.32;;;1.20;99.90;;;;;;5001678;28;20364;-81
2021/12/04 01:28:56;;;;;;;14.98;8.25;;;1.10;99.90;;;;;;5022480;28;20049;-80
2021/12/04 01:31:44;;;;;;;9.75;6.78;;;1.00;99.90;;;;;;5010430;28;20087;-81
2021/12/04 01:34:32;;;;;;;15.40;8.27;;;0.90;99.90;;;;;;5039275;28;20061;-80
2021/12/04 01:37:21;;;;;;;12.65;7.65;;;0.90;99.90;;;;;;5013491;28;20041;-81
2021/12/04 01:40:09;;;;;;;15.85;8.80;;;0.90;99.90;;;;;;5026494;28;20101;-79
2021/12/04 01:42:56;;;;;;;18.75;9.13;;;0.90;99.90;;;;;;5030421;28;20053;-81
2021/12/04 01:45:47;;;;;;;16.65;8.98;;;0.80;99.90;;;;;;5015881;28;20382;-81
2021/12/04 01:48:35;;;;;;;13.82;9.30;;;0.80;99.90;;;;;;5036276;28;20718;-81
2021/12/04 01:51:23;;;;;;;17.48;8.95;;;0.80;99.90;;;;;;5020556;28;20053;-79
2021/12/04 01:54:10;;;;;;;17.95;10.88;;;0.80;99.90;;;;;;5026774;28;20053;-81
2021/12/04 01:56:58;;;;;;;21.50;10.15;;;0.80;99.90;;;;;;5021089;28;20077;-83
2021/12/04 01:59:45;;;;;;;19.05;10.40;;;0.80;99.90;;;;;;5018192;28;20033;-81
2021/12/04 02:02:33;;;;;;;19.52;11.50;;;0.80;99.90;;;;;;5003915;28;20073;-81
2021/12/04 02:05:20;;;;;;;19.52;10.68;;;0.80;99.90;;;;;;5009676;28;20041;-82
2021/12/04 02:08:11;;;;;;;17.63;11.13;;;0.80;99.90;;;;;;5002948;28;20138;-83
2021/12/04 02:11:01;;;;;;;19.35;10.98;;;0.80;99.90;;;;;;5016772;28;20482;-84
2021/12/04 02:13:48;;;;;;;19.60;11.35;;;0.80;99.90;;;;;;5010229;28;20037;-82
2021/12/04 02:16:38;;;;;;;18.45;10.65;;;0.90;99.90;;;;;;5017805;28;20045;-83
2021/12/04 02:19:26;;;;;;;20.90;10.52;;;0.90;99.90;;;;;;5015210;28;20059;-81
2021/12/04 02:22:13;;;;;;;18.88;9.82;;;1.00;99.90;;;;;;5011300;28;20073;-82
2021/12/04 02:25:00;;;;;;;16.42;9.50;;;1.10;99.90;;;;;;5009191;28;20061;-83
2021/12/04 02:27:48;;;;;;;16.98;9.63;;;1.20;99.90;;;;;;5001778;28;20115;-83
2021/12/04 02:30:38;;;;;;;15.15;8.35;;;1.20;99.90;;;;;;5028194;28;20040;-81
2021/12/04 02:33:26;;;;;;;17.80;8.68;;;1.20;99.90;;;;;;5018458;28;20093;-83
2021/12/04 02:36:13;;;;;;;17.40;9.25;;;1.30;99.90;;;;;;5013057;28;20046;-82
2021/12/04 02:39:02;;;;;;;16.50;8.80;;;1.30;99.90;;;;;;4993349;28;20085;-81
2021/12/04 02:41:52;;;;;;;15.57;7.72;;;1.40;99.90;;;;;;5010706;28;20042;-81
2021/12/04 02:44:40;;;;;;;13.38;7.47;;;1.50;99.90;;;;;;5003432;28;20593;-83
2021/12/04 02:47:30;;;;;;;10.68;6.65;;;1.50;99.90;;;;;;5013384;28;20057;-81
2021/12/04 02:50:23;;;;;;;11.45;6.97;;;1.60;99.90;;;;;;5000320;28;20061;-82
2021/12/04 02:53:10;;;;;;;10.07;7.03;;;1.60;99.90;;;;;;4996411;28;20420;-83
2021/12/04 02:55:57;;;;;;;8.82;5.88;;;1.60;99.90;;;;;;5010590;28;20045;-82
2021/12/04 02:58:50;;;;;;;9.23;6.40;;;1.60;99.90;;;;;;5020343;28;20511;-82
2021/12/04 03:01:41;;;;;;;10.68;5.93;;;1.60;99.90;;;;;;5012724;28;20050;-81
2021/12/04 03:04:31;;;;;;;7.20;5.10;;;1.70;99.90;;;;;;5010315;28;20064;-80
2021/12/04 03:07:19;;;;;;;9.25;5.43;;;1.70;99.90;;;;;;5000874;28;20068;-81
2021/12/04 03:10:11;;;;;;;6.53;5.15;;;1.70;99.90;;;;;;4985759;28;20050;-82
2021/12/04 03:12:58;;;;;;;8.05;5.05;;;1.70;99.90;;;;;;4995413;28;20053;-82
2021/12/04 03:15:56;;;;;;;6.35;4.65;;;1.80;99.90;;;;;;4996514;28;20034;-84
2021/12/04 03:18:43;;;;;;;6.70;4.65;;;1.80;99.90;;;;;;4999008;28;20042;-80
2021/12/04 03:21:31;;;;;;;7.50;5.53;;;1.80;99.90;;;;;;5010525;28;20045;-81
2021/12/04 03:24:20;;;;;;;7.43;4.90;;;1.80;99.90;;;;;;5009056;28;20159;-81
2021/12/04 03:27:07;;;;;;;5.22;4.40;;;1.80;99.90;;;;;;5022303;28;20041;-82
2021/12/04 03:29:57;;;;;;;6.22;4.70;;;1.80;99.90;;;;;;5014821;28;20076;-81
2021/12/04 03:35:17;;;;;;;7.32;4.35;;;1.80;99.90;;;;;;5011302;28;20050;-81
2021/12/04 03:42:01;;;;;;;4.70;4.00;;;1.80;99.90;;;;;;5010117;28;20053;-82
2021/12/04 03:44:49;;;;;;;5.32;3.60;;;1.80;99.90;;;;;;5013284;28;20513;-82
2021/12/04 03:47:43;;;;;;;4.93;3.53;;;1.80;99.90;;;;;;5024604;28;20092;-81
2021/12/04 03:50:30;;;;;;;4.28;3.50;;;1.80;99.90;;;;;;5009563;28;20139;-82
2021/12/04 03:53:21;;;;;;;4.07;3.03;;;1.90;99.90;;;;;;4997871;28;20135;-83
2021/12/04 03:56:10;;;;;;;5.40;3.05;;;1.90;99.90;;;;;;5021846;28;20201;-82
2021/12/04 03:58:58;;;;;;;6.50;3.55;;;1.90;99.90;;;;;;5001661;28;20050;-83
2021/12/04 04:01:45;;;;;;;4.28;2.90;;;1.90;99.90;;;;;;4997098;28;20493;-82
2021/12/04 04:04:32;;;;;;;3.97;2.78;;;2.00;99.90;;;;;;4989871;28;20079;-82
2021/12/04 04:07:22;;;;;;;3.50;2.65;;;2.00;99.90;;;;;;5021027;28;20155;-83
2021/12/04 04:10:09;;;;;;;2.53;2.33;;;2.00;99.90;;;;;;5015015;28;20054;-83
2021/12/04 04:12:56;;;;;;;2.83;2.38;;;2.10;99.90;;;;;;4972185;28;20108;-81
2021/12/04 04:15:44;;;;;;;2.65;2.40;;;2.10;99.90;;;;;;5009031;28;20375;-82
2021/12/04 04:18:32;;;;;;;3.05;2.33;;;2.10;99.90;;;;;;5015371;28;20131;-82
2021/12/04 04:21:19;;;;;;;2.42;1.92;;;2.20;99.90;;;;;;5014563;28;20074;-82
2021/12/04 04:24:12;;;;;;;2.20;1.80;;;2.20;99.90;;;;;;5015413;28;20056;-82
2021/12/04 04:27:02;;;;;;;1.92;1.83;;;2.20;99.90;;;;;;5000435;28;20065;-82
2021/12/04 04:29:50;;;;;;;1.67;1.58;;;2.30;99.90;;;;;;5017568;28;20117;-81
2021/12/04 04:32:37;;;;;;;2.08;1.60;;;2.30;99.90;;;;;;4987428;28;20220;-83
2021/12/04 04:35:27;;;;;;;1.45;1.35;;;2.30;99.90;;;;;;5011717;28;20215;-83
2021/12/04 04:38:57;;;;;;;1.42;1.33;;;2.30;99.90;;;;;;4986520;28;20052;-80
2021/12/04 05:00:34;;;;;;;1.48;1.17;;;2.60;99.90;;;;;;5019499;28;20073;-82
2021/12/04 05:10:20;;;;;;;0.90;0.90;;;2.70;99.90;;;;;;5031239;28;20042;-84
2021/12/04 05:13:15;;;;;;;1.10;0.90;;;2.70;99.90;;;;;;5004068;28;20124;-82
2021/12/04 05:16:19;;;;;;;3.55;1.60;;;2.80;99.90;;;;;;5013018;28;20432;-83
2021/12/04 05:19:37;;;;;;;3.30;1.15;;;2.80;99.90;;;;;;5002219;28;20502;-83
2021/12/04 05:22:24;;;;;;;0.90;0.90;;;2.80;99.90;;;;;;5017975;28;20053;-85
2021/12/04 05:25:11;;;;;;;0.90;0.90;;;2.80;99.90;;;;;;5016533;28;20058;-83
2021/12/04 05:27:59;;;;;;;0.90;0.90;;;2.80;99.90;;;;;;5017317;28;20584;-83
2021/12/04 05:30:46;;;;;;;0.82;0.82;;;2.80;99.90;;;;;;5007085;28;20100;-83
2021/12/04 05:33:33;;;;;;;0.90;0.90;;;2.90;99.90;;;;;;5016462;28;20049;-83
2021/12/04 05:36:24;;;;;;;0.90;0.90;;;2.90;99.90;;;;;;5021855;28;20368;-82
2021/12/04 05:39:12;;;;;;;2.00;1.20;;;2.90;99.90;;;;;;5013756;28;20076;-84
2021/12/04 05:42:00;;;;;;;1.77;0.98;;;2.90;99.90;;;;;;5005317;28;20413;-83
2021/12/04 05:44:47;;;;;;;0.90;0.90;;;3.00;99.90;;;;;;5017939;28;20045;-83
2021/12/04 05:47:42;;;;;;;1.00;1.00;;;3.00;99.90;;;;;;5010831;28;20037;-83
2021/12/04 05:54:28;;;;;;;1.77;0.80;;;3.00;99.90;;;;;;5019371;28;20050;-83
2021/12/04 05:56:48;;;;;;;0.90;0.90;;;3.00;99.90;;;;;;5014500;28;20103;-82
2021/12/04 05:59:36;;;;;;;0.73;0.73;;;3.00;99.90;;;;;;5008443;28;20447;-82
2021/12/04 06:02:23;;;;;;;1.27;1.17;;;3.00;99.90;;;;;;5016024;28;20175;-82
2021/12/04 06:05:13;;;;;;;1.00;1.00;;;3.00;99.90;;;;;;5017030;28;20164;-84
2021/12/04 06:08:01;;;;;;;1.20;1.10;;;3.10;99.90;;;;;;5025681;28;20046;-83
2021/12/04 06:10:50;;;;;;;0.95;0.95;;;3.10;99.90;;;;;;5013142;28;20076;-85
2021/12/04 06:13:37;;;;;;;0.90;0.90;;;3.10;99.90;;;;;;5015205;28;20537;-84
2021/12/04 06:16:25;;;;;;;0.98;0.98;;;3.20;99.90;;;;;;5010857;28;20053;-83
2021/12/04 06:22:37;;;;;;;1.13;0.95;;;3.20;99.90;;;;;;5015332;28;20046;-83
2021/12/04 06:22:38;;;;;;;0.80;0.80;;;3.20;99.90;;;;;;5026044;28;20049;-84
2021/12/04 06:25:27;;;;;;;0.88;0.88;;;3.30;99.90;;;;;;5010169;28;20041;-82
2021/12/04 06:28:15;;;;;;;0.95;0.95;;;3.40;99.90;;;;;;5013744;28;20081;-83
2021/12/04 06:31:03;;;;;;;0.80;0.80;;;3.40;99.90;;;;;;5022344;28;20418;-85
2021/12/04 06:33:51;;;;;;;0.80;0.80;;;3.40;99.90;;;;;;5011553;28;20042;-81
2021/12/04 06:36:41;;;;;;;0.90;0.90;;;3.40;99.90;;;;;;5030564;28;20079;-83
2021/12/04 06:39:29;;;;;;;1.52;1.05;;;3.50;99.90;;;;;;5011543;28;20042;-86
2021/12/04 06:42:22;;;;;;;2.40;1.15;;;3.50;99.90;;;;;;5002075;28;20038;-90
2021/12/04 06:45:16;;;;;;;0.80;0.80;;;3.50;99.90;;;;;;5017420;28;20124;-87
2021/12/04 06:48:18;;;;;;;0.82;0.82;;;3.60;99.90;;;;;;5020174;28;20121;-90
2021/12/04 06:57:08;;;;;;;1.00;1.00;;;3.70;99.90;;;;;;4996668;28;20135;-89
2021/12/04 07:00:16;;;;;;;1.10;1.00;;;3.60;99.90;;;;;;5011427;28;20064;-88
2021/12/04 07:03:11;;;;;;;0.88;0.88;;;3.70;99.90;;;;;;5018258;28;20041;-88
2021/12/04 07:06:39;;;;;;;1.00;0.90;;;3.70;99.90;;;;;;5015489;28;20059;-90
2021/12/04 07:10:31;;;;;;;0.93;0.90;;;3.80;99.90;;;;;;4968048;28;20043;-86
2021/12/04 07:13:44;;;;;;;1.00;1.00;;;3.80;99.90;;;;;;4974703;28;20089;-82
2021/12/04 07:17:03;;;;;;;0.80;0.80;;;3.90;99.90;;;;;;4971710;28;20043;-85
2021/12/04 07:20:44;;;;;;;;;;;;;;;;;;;;;
2021/12/04 07:24:22;;;;;;;1.77;1.10;;;3.90;99.90;;;;;;5020491;28;20092;-84
2021/12/04 07:27:51;;;;;;;;;;;;;;;;;;;;;
2021/12/04 07:31:02;;;;;;;0.90;0.90;;;3.90;99.90;;;;;;5033194;28;20041;-84
2021/12/04 07:33:56;;;;;;;0.80;0.80;;;3.90;99.90;;;;;;5008553;28;20665;-83
2021/12/04 07:36:47;;;;;;;1.00;1.00;;;3.90;99.90;;;;;;4991020;28;20365;-85
2021/12/04 07:39:59;;;;;;;0.90;0.90;;;4.00;99.90;;;;;;4990969;28;20038;-84
2021/12/04 07:43:11;;;;;;;1.20;1.10;;;4.00;99.90;;;;;;4976878;28;20046;-85
2021/12/04 07:46:22;;;;;;;0.80;0.80;;;4.00;99.90;;;;;;5002646;28;20041;-85
2021/12/04 07:49:14;;;;;;;1.65;1.23;;;4.00;99.90;;;;;;5009511;28;20056;-84
2021/12/04 07:52:14;;;;;;;1.13;1.00;;;4.00;99.90;;;;;;5006380;28;20050;-84
2021/12/04 07:55:35;;;;;;;;;;;;;;;;;;;;;
2021/12/04 07:58:59;;;;;;;1.27;1.27;;;4.00;99.90;;;;;;4945371;29;20126;-83
2021/12/04 08:02:06;;;;;;;1.60;1.50;;;4.00;99.90;;;;;;4948728;28;20064;-83
2021/12/04 08:05:51;;;;;;;2.30;1.60;;;4.10;99.90;;;;;;4937490;29;20107;-84
2021/12/04 08:09:22;;;;;;;3.22;1.25;;;4.10;99.90;;;;;;4937729;28;20032;-83
2021/12/04 08:17:13;;;;;;;3.17;1.50;;;4.10;99.90;;;;;;4961182;28;20048;-83
2021/12/04 08:25:06;;;;;;;1.67;1.58;;;4.20;99.90;;;;;;4951684;29;20051;-85
2021/12/04 08:40:59;;;;;;;;;;;;;;;;;;;;;
2021/12/04 08:44:59;;;;;;;3.05;1.50;;;4.40;99.90;;;;;;4760137;30;20059;-85
2021/12/04 08:52:44;;;;;;;1.42;1.33;;;4.60;99.90;;;;;;4767079;30;20093;-86
2021/12/04 08:56:20;;;;;;;2.00;1.80;;;4.60;99.90;;;;;;4807765;29;20043;-87
2021/12/04 08:59:24;;;;;;;2.38;1.80;;;4.70;99.90;;;;;;4821781;29;20046;-86
2021/12/04 09:19:26;;;;;;;3.20;1.60;;;5.00;99.90;;;;;;4890619;29;20040;-87
2021/12/04 10:22:37;;;;;;;1.10;1.00;;;6.80;99.90;;;;;;4855503;29;20057;-87
2021/12/04 10:33:53;;;;;;;2.13;1.38;;;6.60;99.90;;;;;;4820768;29;20150;-86
2021/12/04 10:37:23;;;;;;;;;;;;;;;;;;;;;
2021/12/04 10:40:53;;;;;;;1.60;1.50;;;6.70;99.90;;;;;;4820866;29;20133;-86
2021/12/04 10:44:32;;;;;;;1.02;1.02;;;6.90;99.90;;;;;;4799951;29;20547;-88
2021/12/04 10:48:15;;;;;;;2.70;1.40;;;7.00;99.90;;;;;;4795221;29;20076;-87
2021/12/04 10:56:11;;;;;;;1.27;1.20;;;7.50;99.90;;;;;;4714391;30;20436;-87
2021/12/04 11:02:09;;;;;;;1.23;0.93;;;7.60;99.90;;;;;;4783028;29;20059;-87
2021/12/04 11:05:14;;;;;;;1.10;1.00;;;7.60;99.90;;;;;;4799428;29;20100;-86
2021/12/04 11:27:49;;;;;;;3.17;1.40;;;7.60;99.90;;;;;;4800759;29;20059;-84
2021/12/04 11:40:35;;;;;;;1.23;0.93;;;7.50;99.90;;;;;;4803420;29;20046;-86
2021/12/04 11:43:26;;;;;;;2.03;1.13;;;7.60;99.90;;;;;;4792929;29;20061;-84
2021/12/04 11:46:24;;;;;;;1.05;1.00;;;7.60;99.90;;;;;;4797575;29;20498;-87
2021/12/04 11:49:30;;;;;;;1.30;1.20;;;7.70;99.90;;;;;;4834301;29;20068;-84
2021/12/04 11:52:20;;;;;;;1.52;1.10;;;7.80;99.90;;;;;;4838294;29;20047;-86
2021/12/04 11:55:14;;;;;;;1.23;1.10;;;7.90;99.90;;;;;;4834745;29;20059;-87
2021/12/04 11:58:15;;;;;;;1.27;1.17;;;7.90;99.90;;;;;;4832787;29;20050;-90
2021/12/04 12:01:30;;;;;;;1.25;1.20;;;7.90;99.90;;;;;;4838584;29;20045;-88
2021/12/04 12:04:35;;;;;;;1.30;1.20;;;7.80;99.90;;;;;;4839911;29;20054;-87
2021/12/04 12:07:31;;;;;;;1.65;1.40;;;7.70;99.90;;;;;;4830823;29;20133;-86
2021/12/04 12:10:19;;;;;;;1.80;1.20;;;7.60;99.90;;;;;;4828430;29;20058;-87
2021/12/04 12:13:07;;;;;;;2.00;1.40;;;7.50;99.90;;;;;;4840106;29;20053;-87
2021/12/04 12:16:06;;;;;;;1.42;1.33;;;7.50;99.90;;;;;;4828198;29;20204;-87
2021/12/04 12:19:14;;;;;;;2.35;1.38;;;7.50;99.90;;;;;;4837805;29;20058;-85
2021/12/04 12:22:10;;;;;;;1.92;1.40;;;7.60;99.90;;;;;;4826285;29;20112;-85
2021/12/04 12:32:04;;;;;;;1.25;1.15;;;7.50;99.90;;;;;;4837653;29;20050;-86
2021/12/04 12:38:06;;;;;;;1.98;1.70;;;7.50;99.90;;;;;;4828501;29;20098;-87
2021/12/04 12:41:03;;;;;;;3.35;2.30;;;7.50;99.90;;;;;;4842157;29;20144;-87
2021/12/04 12:43:56;;;;;;;4.43;1.98;;;7.50;99.90;;;;;;4842701;29;20056;-88
2021/12/04 12:46:46;;;;;;;1.30;1.20;;;7.50;99.90;;;;;;4843838;29;20068;-88
2021/12/04 12:49:40;;;;;;;1.45;1.35;;;7.50;99.90;;;;;;4840905;29;20202;-87
2021/12/04 12:52:29;;;;;;;2.40;1.85;;;7.50;99.90;;;;;;4841681;29;20484;-87
2021/12/04 12:55:23;;;;;;;1.40;1.30;;;7.40;99.90;;;;;;4842690;29;20117;-83
2021/12/04 12:58:21;;;;;;;3.08;1.20;;;7.40;99.90;;;;;;4843074;29;20118;-85
2021/12/04 13:14:11;;;;;;;1.90;1.58;;;7.40;99.90;;;;;;4842586;29;20045;-88
2021/12/04 13:17:16;;;;;;;5.65;2.83;;;7.40;99.90;;;;;;4839813;29;20057;-84
2021/12/04 13:20:05;;;;;;;1.85;1.30;;;7.40;99.90;;;;;;4827069;29;20042;-84
2021/12/04 13:23:14;;;;;;;1.50;1.40;;;7.40;99.90;;;;;;4824571;29;20061;-90
2021/12/04 13:26:09;;;;;;;4.95;2.78;;;7.40;99.90;;;;;;4841400;29;20092;-84
2021/12/04 13:28:59;;;;;;;1.48;1.35;;;7.50;99.90;;;;;;4831625;29;20168;-86
2021/12/04 13:31:47;;;;;;;2.85;2.08;;;7.40;99.90;;;;;;4838036;29;20046;-86
2021/12/04 13:34:37;;;;;;;1.38;1.27;;;7.40;99.90;;;;;;4822723;29;20096;-87
2021/12/04 13:37:26;;;;;;;3.33;2.10;;;7.40;99.90;;;;;;4840621;29;20057;-87
2021/12/04 13:40:17;;;;;;;3.22;2.90;;;7.40;99.90;;;;;;4839922;29;20105;-84
2021/12/04 13:43:15;;;;;;;1.50;1.40;;;7.30;99.90;;;;;;4840251;29;20053;-87
2021/12/04 13:46:05;;;;;;;2.15;1.38;;;7.30;99.90;;;;;;4841199;29;20058;-86
2021/12/04 13:49:01;;;;;;;4.85;2.25;;;7.30;99.90;;;;;;4840671;29;20427;-85
2021/12/04 13:51:57;;;;;;;3.17;2.17;;;7.20;99.90;;;;;;4836801;29;20120;-85
2021/12/04 13:54:48;;;;;;;2.53;1.65;;;7.20;99.90;;;;;;4824026;29;20046;-87
2021/12/04 13:57:48;;;;;;;2.47;1.70;;;7.20;99.90;;;;;;4838259;29;20046;-87
2021/12/04 14:00:44;;;;;;;6.93;3.33;;;7.20;99.90;;;;;;4840537;29;20090;-87
2021/12/04 14:03:33;;;;;;;3.60;2.30;;;7.20;99.90;;;;;;4836916;29;20056;-86
2021/12/04 14:06:23;;;;;;;1.80;1.70;;;7.20;99.90;;;;;;4840319;29;20050;-85
2021/12/04 14:09:12;;;;;;;1.83;1.67;;;7.10;99.90;;;;;;4808565;29;20051;-86
2021/12/04 14:12:08;;;;;;;2.05;1.63;;;7.10;99.90;;;;;;4833739;29;20053;-91
2021/12/04 14:14:58;;;;;;;1.80;1.70;;;7.20;99.90;;;;;;4833558;29;20076;-87
2021/12/04 14:18:18;;;;;;;2.83;1.70;;;7.20;99.90;;;;;;4818536;29;20051;-87
2021/12/04 14:21:18;;;;;;;4.63;1.70;;;7.10;99.90;;;;;;4835463;29;20228;-88
2021/12/04 14:24:37;;;;;;;2.08;1.88;;;7.10;99.90;;;;;;4834091;29;20080;-89
2021/12/04 14:27:38;;;;;;;1.80;1.70;;;7.10;99.90;;;;;;4850044;29;20055;-91
2021/12/04 14:30:32;;;;;;;2.47;1.55;;;7.10;99.90;;;;;;4846017;29;20059;-90
2021/12/04 14:33:28;;;;;;;3.15;1.80;;;7.10;99.90;;;;;;4825344;29;20058;-90
2021/12/04 14:36:22;;;;;;;1.88;1.77;;;7.10;99.90;;;;;;4849910;29;20144;-89
2021/12/04 14:39:24;;;;;;;1.88;1.70;;;7.10;99.90;;;;;;4842514;29;20070;-91
2021/12/04 14:43:03;;;;;;;2.13;1.50;;;7.00;99.90;;;;;;4838290;29;20050;-90
2021/12/04 14:46:25;;;;;;;1.95;1.80;;;7.10;99.90;;;;;;4801059;29;20057;-90
2021/12/04 14:53:57;;;;;;;2.53;2.15;;;7.00;99.90;;;;;;4768617;30;20051;-89
2021/12/04 14:57:48;;;;;;;5.15;2.80;;;7.10;99.90;;;;;;4754071;30;20076;-90
2021/12/04 15:04:48;;;;;;;4.50;2.03;;;7.10;99.90;;;;;;4768534;30;20063;-89
2021/12/04 15:15:48;;;;;;;7.90;2.30;;;7.00;99.90;;;;;;4764653;30;20061;-90
2021/12/04 15:19:13;;;;;;;2.30;1.80;;;7.00;99.90;;;;;;4803248;29;20614;-90
2021/12/04 15:22:19;;;;;;;2.10;1.77;;;7.00;99.90;;;;;;4798249;29;20065;-90
2021/12/04 15:25:30;;;;;;;;;;;;;;;;;;;;;
2021/12/04 15:28:29;;;;;;;3.25;2.08;;;7.00;99.90;;;;;;4842739;29;20053;-90
2021/12/04 15:31:26;;;;;;;2.92;2.53;;;7.00;99.90;;;;;;4842848;29;20053;-89
2021/12/04 15:34:37;;;;;;;3.15;2.50;;;7.00;99.90;;;;;;4821698;29;20060;-90
2021/12/04 15:37:35;;;;;;;5.10;2.50;;;7.10;99.90;;;;;;4847200;29;20160;-89
2021/12/04 15:47:50;;;;;;;4.60;2.90;;;7.30;99.90;;;;;;4830012;29;20153;-89
2021/12/04 16:29:26;;;;;;;3.03;2.10;;;7.20;99.90;;;;;;4760805;30;20052;-89
2021/12/04 16:58:18;;;;;;;4.40;3.22;;;6.80;99.90;;;;;;4853626;29;20049;-89
2021/12/04 17:18:50;;;;;;;;;;;;;;;;;;;;;
2021/12/04 17:26:30;;;;;;;5.03;3.10;;;6.70;99.90;;;;;;4792496;30;20043;-90
2021/12/04 17:29:46;;;;;;;5.05;3.10;;;6.70;99.90;;;;;;4696914;30;20049;-88
2021/12/04 17:33:11;;;;;;;4.18;3.28;;;6.70;99.90;;;;;;4713996;30;20148;-87
2021/12/04 17:40:55;;;;;;;2.30;1.90;;;6.60;99.90;;;;;;4829900;29;20034;-85
2021/12/04 17:52:35;;;;;;;4.30;3.08;;;6.60;99.90;;;;;;4829981;29;20097;-88
2021/12/04 17:55:24;;;;;;;5.47;3.75;;;6.60;99.90;;;;;;4837301;29;20038;-88
2021/12/04 17:58:16;;;;;;;3.37;2.70;;;6.50;99.90;;;;;;4808707;29;20057;-87
2021/12/04 18:01:21;;;;;;;6.45;3.53;;;6.50;99.90;;;;;;4824480;29;20053;-87
2021/12/04 18:04:12;;;;;;;2.88;2.50;;;6.40;99.90;;;;;;4820936;29;20061;-88
2021/12/04 18:07:04;;;;;;;4.38;3.10;;;6.30;99.90;;;;;;4816436;29;20110;-87
2021/12/04 18:09:54;;;;;;;2.58;1.70;;;6.20;99.90;;;;;;4829157;29;20046;-88
2021/12/04 18:12:48;;;;;;;2.03;1.67;;;6.10;99.90;;;;;;4842398;29;20443;-86
2021/12/04 18:16:10;;;;;;;1.25;1.20;;;6.00;99.90;;;;;;4864810;29;20128;-88
2021/12/04 18:18:58;;;;;;;3.67;1.63;;;5.90;99.90;;;;;;4865301;29;20042;-87
2021/12/04 18:21:47;;;;;;;1.48;1.27;;;5.70;99.90;;;;;;4857797;29;20054;-87
2021/12/04 18:24:41;;;;;;;3.17;2.70;;;5.60;99.90;;;;;;4849579;29;20046;-85
2021/12/04 18:27:36;;;;;;;5.32;3.88;;;5.50;99.90;;;;;;4840279;29;20060;-88
2021/12/04 18:30:29;;;;;;;2.72;2.38;;;5.40;99.90;;;;;;4842610;29;20076;-89
2021/12/04 18:33:20;;;;;;;5.03;1.77;;;5.40;99.90;;;;;;4844832;29;20064;-87
2021/12/04 18:36:09;;;;;;;2.70;2.50;;;5.40;99.90;;;;;;4841357;29;20110;-87
2021/12/04 18:38:58;;;;;;;3.63;2.70;;;5.30;99.90;;;;;;4839323;29;20062;-87
2021/12/04 18:41:48;;;;;;;1.67;1.58;;;5.30;99.90;;;;;;4842360;29;20042;-87
2021/12/04 18:44:53;;;;;;;4.20;3.20;;;5.30;99.90;;;;;;4842922;29;20063;-87
2021/12/04 18:48:01;;;;;;;6.13;4.30;;;5.20;99.90;;;;;;4829141;29;20046;-88
2021/12/04 18:50:50;;;;;;;3.88;3.05;;;5.20;99.90;;;;;;4843351;29;20506;-86
2021/12/04 18:53:41;;;;;;;2.38;2.05;;;5.20;99.90;;;;;;4826766;29;20810;-87
2021/12/04 18:56:33;;;;;;;3.72;2.25;;;5.20;99.90;;;;;;4828048;29;20137;-84
2021/12/04 18:59:21;;;;;;;3.85;1.85;;;5.10;99.90;;;;;;4842457;29;20086;-90
2021/12/04 19:02:11;;;;;;;2.17;1.60;;;5.10;99.90;;;;;;4819610;29;20077;-86
2021/12/04 19:05:02;;;;;;;1.53;1.43;;;5.10;99.90;;;;;;4816139;29;20073;-86
2021/12/04 19:07:50;;;;;;;3.65;1.98;;;5.10;99.90;;;;;;4842073;29;20053;-87
2021/12/04 19:10:38;;;;;;;3.45;1.67;;;5.10;99.90;;;;;;4836676;29;20061;-88
2021/12/04 19:13:26;;;;;;;2.30;1.42;;;5.00;99.90;;;;;;4839626;29;20065;-86
2021/12/04 19:16:13;;;;;;;1.27;1.17;;;5.00;99.90;;;;;;4825085;29;20045;-88
2021/12/04 19:19:07;;;;;;;1.60;1.50;;;5.00;99.90;;;;;;4839214;29;20477;-86
2021/12/04 19:21:55;;;;;;;0.98;0.98;;;5.00;99.90;;;;;;4853346;29;20045;-87
2021/12/04 19:24:42;;;;;;;2.95;1.55;;;5.00;99.90;;;;;;4846992;29;20378;-88
2021/12/04 19:27:30;;;;;;;1.80;1.60;;;4.90;99.90;;;;;;4847204;29;20062;-87
2021/12/04 19:30:26;;;;;;;2.47;1.70;;;4.90;99.90;;;;;;4843220;29;20064;-85
2021/12/04 19:36:45;;;;;;;1.73;1.63;;;4.90;99.90;;;;;;4857240;29;20114;-86
2021/12/04 19:49:41;;;;;;;3.90;2.45;;;4.60;99.90;;;;;;4834280;29;20068;-86
2021/12/04 19:52:13;;;;;;;2.65;2.20;;;4.50;99.90;;;;;;4832396;29;20034;-85
2021/12/04 19:55:07;;;;;;;2.70;2.20;;;4.40;99.90;;;;;;4831666;29;20057;-86
2021/12/04 19:57:57;;;;;;;2.55;2.35;;;4.30;99.90;;;;;;4823533;29;20350;-88
2021/12/04 20:01:08;;;;;;;6.03;2.20;;;4.20;99.90;;;;;;4833829;29;20035;-89
2021/12/04 20:13:14;;;;;;;8.02;3.83;;;4.10;99.90;;;;;;4831061;29;20050;-86
2021/12/04 20:13:33;;;;;;;6.78;4.15;;;4.10;99.90;;;;;;4821261;29;20483;-86
2021/12/04 20:16:29;;;;;;;4.78;3.67;;;4.00;99.90;;;;;;4809507;29;20070;-88
2021/12/04 20:19:25;;;;;;;5.20;4.00;;;4.00;99.90;;;;;;4806684;29;20059;-88
2021/12/04 20:22:15;;;;;;;5.30;3.50;;;4.00;99.90;;;;;;4815477;29;20063;-86
2021/12/04 20:25:08;;;;;;;3.58;2.45;;;3.90;99.90;;;;;;4821227;29;20184;-90
2021/12/04 20:28:04;;;;;;;4.63;3.38;;;4.00;99.90;;;;;;4829512;29;20107;-87
2021/12/04 20:31:00;;;;;;;4.05;2.85;;;4.00;99.90;;;;;;4815228;29;20050;-86
2021/12/04 20:37:24;;;;;;;3.33;2.40;;;3.90;99.90;;;;;;4821799;29;20070;-87
2021/12/04 21:40:04;;;;;;;15.65;3.50;;;2.80;99.90;;;;;;4852640;29;20155;-85
2021/12/04 21:51:50;;;;;;;5.57;2.78;;;2.70;99.90;;;;;;4849974;29;20060;-86
2021/12/04 21:54:41;;;;;;;5.70;2.72;;;2.70;99.90;;;;;;4856615;29;20500;-85
2021/12/04 22:10:04;;;;;;;13.50;2.97;;;2.80;99.90;;;;;;4853569;29;20102;-87
2021/12/04 22:13:20;;;;;;;7.18;2.97;;;2.80;99.90;;;;;;4865824;29;20054;-90
2021/12/04 22:19:56;;;;;;;10.05;3.03;;;2.80;99.90;;;;;;4856501;29;20046;-88
2021/12/04 22:23:13;;;;;;;10.07;2.53;;;2.70;99.90;;;;;;4856304;29;20056;-86
2021/12/04 22:59:39;;;;;;;7.20;2.40;;;2.70;99.90;;;;;;4853085;29;20053;-84
2021/12/04 23:02:39;;;;;;;12.27;3.47;;;2.50;99.90;;;;;;4847318;29;20162;-85
2021/12/04 23:11:49;;;;;;;10.13;2.85;;;2.20;99.90;;;;;;4854899;29;20488;-85
2021/12/04 23:14:42;;;;;;;12.10;3.08;;;2.10;99.90;;;;;;4867257;29;20059;-85
2021/12/04 23:17:49;;;;;;;19.65;3.47;;;2.10;99.90;;;;;;4846341;29;20495;-85
2021/12/04 23:39:52;;;;;;;15.32;3.50;;;2.10;99.90;;;;;;4844736;29;20117;-85
